Flight Track Log - Related Links

Times and Time Zones

All times are in EDT time to prevent confusion due to time zone crossing. See the N523JM flight status page for this flight to view local times or setup timezone preferences in your user account.


Time Position Orientation Groundspeed Altitude Reporting Facility
EDT Latitude Longitude Course Direction KTS MPH feet Rate Location/Type
Thu 09:17:01 AM 40.0756 -83.0886 265° West 170 196 1,200  Level Indianapolis Center
Thu 09:18:08 AM 40.0694 -83.1722 265° West 230 265 3,300 1,940 Climbing Indianapolis Center
Thu 09:19:14 AM 40.0069 -83.1689 178° South 243 280 5,500 2,016 Climbing Indianapolis Center
Thu 09:20:16 AM 39.9361 -83.1208 153° Southeast 281 323 7,600 2,032 Climbing Indianapolis Center
Thu 09:21:18 AM 39.8667 -83.0556 144° Southeast 300 345 9,700 2,032 Climbing Indianapolis Center
Thu 09:22:20 AM 39.7928 -82.9864 144° Southeast 320 368 11,800 1,984 Climbing Indianapolis Center
Thu 09:23:22 AM 39.7086 -82.9103 145° Southeast 360 414 13,800 1,984 Climbing Indianapolis Center
Thu 09:24:24 AM 39.6025 -82.8894 171° South 378 435 15,900 2,032 Climbing Indianapolis Center
Thu 09:25:26 AM 39.4786 -82.8617 170° South 383 441 18,000 2,032 Climbing Indianapolis Center
Thu 09:26:28 AM 39.3708 -82.8386 171° South 387 445 20,100 1,984 Climbing Indianapolis Center
Thu 09:27:30 AM 39.2619 -82.8150 170° South 392 451 22,100 1,645 Climbing Indianapolis Center
Thu 09:28:32 AM 39.1639 -82.7911 169° South 394 453 23,500 1,548 Climbing Indianapolis Center
Thu 09:29:34 AM 39.0286 -82.7625 171° South 410 472 25,300 1,548 Climbing Indianapolis Center
Thu 09:30:36 AM 38.9147 -82.7372 170° South 415 478 26,700 1,161 Climbing Indianapolis Center
Thu 09:31:38 AM 38.8006 -82.7114 170° South 419 482 27,700 968 Climbing Indianapolis Center
Thu 09:32:40 AM 38.6817 -82.6856 170° South 431 496 28,700 960 Climbing Indianapolis Center
Thu 09:33:43 AM 38.5539 -82.6578 170° South 441 507 29,700 960 Climbing Indianapolis Center
Thu 09:34:45 AM 38.4314 -82.6314 170° South 445 512 30,700 629 Climbing Indianapolis Center
Thu 09:35:47 AM 38.2861 -82.6003 170° South 454 522 31,000 145 Climbing Indianapolis Center
Thu 09:36:49 AM 38.1553 -82.5714 170° South 473 544 31,000  Level Indianapolis Center
Thu 09:37:51 AM 38.0228 -82.5442 171° South 479 551 31,000 145 Level Indianapolis Center
Thu 09:38:53 AM 37.8867 -82.5142 170° South 491 565 31,300 629 Climbing Indianapolis Center
Thu 09:39:55 AM 37.7533 -82.4847 170° South 488 562 32,300 919 Climbing Indianapolis Center
Thu 09:40:57 AM 37.6247 -82.4578 171° South 470 541 33,200 1,016 Climbing Indianapolis Center
Thu 09:41:59 AM 37.4778 -82.4283 171° South 456 525 34,400 1,016 Climbing Indianapolis Center
Thu 09:43:01 AM 37.3522 -82.4019 171° South 455 524 35,300 774 Climbing Indianapolis Center
Thu 09:44:03 AM 37.2275 -82.3747 170° South 453 521 36,000 339 Climbing Indianapolis Center
Thu 09:45:05 AM 37.0992 -82.3481 171° South 461 531 36,000  Level Indianapolis Center
Thu 09:46:07 AM 36.9675 -82.3256 172° South 469 540 36,000  Level Indianapolis Center
Thu 09:47:09 AM 36.8292 -82.3336 183° South 490 564 36,000  Level Indianapolis Center
Thu 09:48:11 AM 36.6939 -82.3389 182° South 482 555 36,000  Level Indianapolis Center
Thu 09:49:02 AM 36.5575 -82.3433 181° South 487 560 36,000  Level Atlanta Center
Thu 09:50:02 AM 36.4408 -82.3483 182° South 487 560 36,000  Level Atlanta Center
Thu 09:51:02 AM 36.3053 -82.3539 182° South 487 560 36,000  Level Atlanta Center
Thu 09:52:02 AM 36.1719 -82.3592 182° South 487 560 36,000  Level Atlanta Center
Thu 09:53:02 AM 36.0383 -82.3619 181° South 480 552 36,000  Level Atlanta Center
Thu 09:54:02 AM 35.9050 -82.3672 182° South 475 547 36,000  Level Atlanta Center
Thu 09:55:02 AM 35.7717 -82.3725 182° South 475 547 36,000  Level Atlanta Center
Thu 09:56:02 AM 35.6425 -82.3803 183° South 470 541 36,000  Level Atlanta Center
Thu 09:57:02 AM 35.5111 -82.3831 181° South 470 541 36,000  Level Atlanta Center
Thu 09:58:02 AM 35.3650 -82.3911 183° South 481 554 36,000  Level Atlanta Center
Thu 09:59:02 AM 35.2317 -82.3936 181° South 476 548 36,000  Level Atlanta Center
Thu 10:00:02 AM 35.1147 -82.3986 182° South 476 548 36,000  Level Atlanta Center
Thu 10:01:02 AM 34.9833 -82.3986 180° South 476 548 36,000  Level Atlanta Center
Thu 10:02:02 AM 34.8519 -82.4036 182° South 476 548 36,000  Level Atlanta Center
Thu 10:03:02 AM 34.7164 -82.4089 182° South 476 548 36,000  Level Atlanta Center
Thu 10:04:02 AM 34.5869 -82.4139 182° South 476 548 36,000  Level Atlanta Center
Thu 10:05:02 AM 34.4556 -82.4164 181° South 476 548 36,000  Level Atlanta Center
Thu 10:06:02 AM 34.3094 -82.4217 182° South 481 554 36,000  Level Atlanta Center
Thu 10:07:02 AM 34.1781 -82.4267 182° South 476 548 36,000  Level Atlanta Center
Thu 10:08:02 AM 34.0425 -82.4294 181° South 487 560 36,000  Level Atlanta Center
Thu 10:09:02 AM 33.9089 -82.4319 181° South 487 560 36,000  Level Atlanta Center
Thu 10:10:02 AM 33.7881 -82.4392 183° South 482 555 36,000  Level Atlanta Center
Thu 10:11:02 AM 33.6608 -82.4414 181° South 467 537 36,000  Level Atlanta Center
Thu 10:12:02 AM 33.5292 -82.4489 183° South 467 537 36,000  Level Atlanta Center
Thu 10:13:02 AM 33.4019 -82.4514 181° South 467 537 36,000  Level Atlanta Center
Thu 10:14:02 AM 33.2725 -82.4536 181° South 467 537 36,000  Level Atlanta Center
Thu 10:15:02 AM 33.1453 -82.4583 182° South 462 532 36,000  Level Atlanta Center
Thu 10:16:02 AM 33.0161 -82.4633 182° South 462 532 36,000  Level Atlanta Center
Thu 10:17:02 AM 32.8886 -82.4681 182° South 457 526 36,000  Level Atlanta Center
Thu 10:19:19 AM 32.5875 -82.4758 181° South 471 542 36,000  Level Jacksonville Center
Thu 10:20:18 AM 32.4581 -82.4814 182° South 471 542 36,000  Level Jacksonville Center
Thu 10:21:18 AM 32.3475 -82.4819 180° South 457 526 36,000  Level Jacksonville Center
Thu 10:22:19 AM 32.2181 -82.4850 181° South 462 532 36,000  Level Jacksonville Center
Thu 10:23:18 AM 32.0886 -82.4906 182° South 462 532 36,000  Level Jacksonville Center
Thu 10:24:18 AM 31.9592 -82.4933 181° South 462 532 36,000  Level Jacksonville Center
Thu 10:25:18 AM 31.8278 -82.4964 181° South 467 537 36,000  Level Jacksonville Center
Thu 10:26:18 AM 31.6983 -82.4994 181° South 467 537 36,000  Level Jacksonville Center
Thu 10:27:18 AM 31.5542 -82.5050 182° South 467 537 36,000  Level Jacksonville Center
Thu 10:28:19 AM 31.4228 -82.5103 182° South 472 543 36,000  Level Jacksonville Center
Thu 10:29:18 AM 31.2953 -82.5181 183° South 471 542 36,000  Level Jacksonville Center
Thu 10:30:18 AM 31.1617 -82.5258 183° South 471 542 36,000  Level Jacksonville Center
Thu 10:31:19 AM 31.0364 -82.5242 179° South 471 542 36,000  Level Jacksonville Center
Thu 10:32:19 AM 30.9050 -82.5317 183° South 471 542 36,000  Level Jacksonville Center
Thu 10:33:18 AM 30.7756 -82.5394 183° South 471 542 36,000  Level Jacksonville Center
Thu 10:34:19 AM 30.6461 -82.5667 190° South 471 542 36,000  Level Jacksonville Center
Thu 10:35:19 AM 30.5253 -82.6322 205° Southwest 474 545 36,000  Level Jacksonville Center
Thu 10:36:19 AM 30.4042 -82.6711 195° South 474 545 36,000 150 Level Jacksonville Center
Thu 10:37:19 AM 30.2767 -82.6472 171° South 448 516 36,300 504 Climbing Jacksonville Center
Thu 10:38:18 AM 30.1556 -82.6283 172° South 453 521 37,000 353 Climbing Jacksonville Center
Thu 10:39:18 AM 30.0325 -82.6069 171° South 448 516 37,000  Level Jacksonville Center
Thu 10:40:19 AM 29.9069 -82.5883 173° South 448 516 37,000  Level Jacksonville Center
Thu 10:41:18 AM 29.7817 -82.5672 172° South 448 516 37,000  Level Jacksonville Center
Thu 10:42:18 AM 29.6564 -82.5483 173° South 453 521 37,000  Level Jacksonville Center
Thu 10:43:19 AM 29.5289 -82.5297 173° South 458 527 37,000  Level Jacksonville Center
Thu 10:44:19 AM 29.4017 -82.5089 172° South 464 534 37,000  Level Jacksonville Center
Thu 10:45:18 AM 29.2783 -82.4903 173° South 464 534 37,000  Level Jacksonville Center
Thu 10:46:19 AM 29.1511 -82.4717 173° South 464 534 37,000  Level Jacksonville Center
Thu 10:47:18 AM 29.0258 -82.4533 173° South 464 534 37,000  Level Jacksonville Center
Thu 10:48:19 AM 28.8983 -82.4350 173° South 464 534 37,000  Level Jacksonville Center
Thu 10:49:19 AM 28.7689 -82.4117 171° South 464 534 37,000  Level Jacksonville Center
Thu 10:50:18 AM 28.6581 -82.4006 175° South 464 534 37,000  Level Jacksonville Center
Thu 10:51:18 AM 28.5286 -82.3797 172° South 459 528 37,000  Level Jacksonville Center
Thu 10:52:19 AM 28.3992 -82.3592 172° South 469 540 37,000  Level Jacksonville Center
Thu 10:55:05 AM 28.0367 -82.3067 173° South 485 558 37,000  Level Miami Center
Thu 10:56:05 AM 27.9122 -82.2864 172° South 474 545 37,000  Level Miami Center
Thu 10:57:05 AM 27.7753 -82.2658 172° South 462 532 37,000  Level Miami Center
Thu 10:58:05 AM 27.6486 -82.2481 173° South 474 545 37,000  Level Miami Center
Thu 10:59:05 AM 27.5408 -82.2314 172° South 453 521 37,000  Level Miami Center
Thu 11:00:05 AM 27.4164 -82.2139 173° South 453 521 37,000  Level Miami Center
Thu 11:01:05 AM 27.2814 -82.1914 172° South 453 521 37,000  Level Miami Center
Thu 11:02:05 AM 27.1589 -82.1739 173° South 453 521 37,000  Level Miami Center
Thu 11:03:05 AM 27.0344 -82.1567 173° South 453 521 37,000  Level Miami Center
Thu 11:04:05 AM 26.9139 -82.1394 173° South 453 521 37,000  Level Miami Center
Thu 11:05:05 AM 26.7875 -82.1197 172° South 453 521 37,000  Level Miami Center
Thu 11:06:05 AM 26.6628 -82.1025 173° South 453 521 37,000  Level Miami Center
Thu 11:07:05 AM 26.5403 -82.0856 173° South 453 521 37,000  Level Miami Center
Thu 11:08:05 AM 26.4175 -82.0708 174° South 448 516 37,000 -300 Level Miami Center
Thu 11:09:05 AM 26.2953 -82.0492 171° South 443 510 36,400 -1,000 Descending Miami Center
Thu 11:10:05 AM 26.1936 -82.0308 171° South 430 495 35,000 -1,700 Descending Miami Center
Thu 11:11:05 AM 26.0772 -82.0142 173° South 424 488 33,000 -2,050 Descending Miami Center
Thu 11:12:05 AM 25.9547 -81.9975 173° South 429 494 30,900 -2,350 Descending Miami Center
Thu 11:13:05 AM 25.8342 -81.9783 172° South 423 487 28,300 -2,700 Descending Miami Center
Thu 11:14:05 AM 25.7261 -81.9647 174° South 411 473 25,500 -2,650 Descending Miami Center
Thu 11:15:05 AM 25.6244 -81.9442 170° South 390 449 23,000 -2,450 Descending Miami Center
Thu 11:16:05 AM 25.5275 -81.9147 165° South 373 429 20,600 -2,450 Descending Miami Center
Thu 11:17:05 AM 25.4325 -81.8786 161° South 363 418 18,100 -2,400 Descending Miami Center
Thu 11:18:05 AM 25.3439 -81.8428 160° South 357 411 15,800 -2,250 Descending Miami Center
Thu 11:19:05 AM 25.2594 -81.8117 162° South 345 397 13,600 -2,050 Descending Miami Center
Thu 11:20:05 AM 25.1744 -81.7900 167° South 321 369 11,700 -1,750 Descending Miami Center
Thu 11:21:05 AM 25.0997 -81.7825 175° South 296 341 10,100 -850 Descending Miami Center
Thu 11:22:05 AM 25.0289 -81.7772 176° South 271 312 10,000 -450 Descending Miami Center
Thu 11:23:05 AM 24.9617 -81.7883 189° South 260 299 9,200 -1,400 Descending Miami Center
Thu 11:24:05 AM 24.8997 -81.8269 209° Southwest 249 287 7,200 -2,000 Descending Miami Center
Thu 11:25:05 AM 24.8403 -81.8611 208° Southwest 249 287 5,200 -1,600 Descending Miami Center
Thu 11:26:05 AM 24.7847 -81.8978 211° Southwest 249 287 4,000 -750 Descending Miami Center
Thu 11:27:05 AM 24.7292 -81.9322 209° Southwest 244 281 3,700 -300 Descending Miami Center
Thu 11:29:00 AM 24.5620 -81.7655 170° South  Level Estimated
Thu 11:36:00 AM 24.5561 -81.7596 170° South  Level Estimated
Thu 11:37:00 AM 24.5561 -81.7596 170° South  Level Estimated
Thu 11:38:00 AM 24.5561 -81.7596 170° South  Level Estimated
Thu 11:39:00 AM 24.5561 -81.7596 170° South  Level Estimated
Thu 11:40:00 AM 24.5561 -81.7596 170° South  Level Estimated
Thu 11:41:00 AM 24.5561 -81.7596 170° South  Level Estimated
Thu 11:42:00 AM 24.5561 -81.7596 170° South  Level Estimated
Thu 11:43:00 AM 24.5561 -81.7596 170° South  Level Estimated

Login

Don't have an account? Register now (free) for customized features, flight alerts, and more!